createdAt,value
2022-10-17T09:09:37.200Z,7.60
2022-10-17T09:12:17.281Z,4.82
2022-10-17T09:14:55.876Z,4.78
2022-10-17T09:18:09.755Z,4.32
2022-10-17T09:20:46.119Z,11.93
2022-10-17T09:23:21.561Z,5.28
2022-10-17T09:25:52.866Z,7.80
2022-10-17T09:28:28.965Z,7.90
2022-10-17T09:31:06.853Z,7.57
2022-10-17T09:33:55.666Z,6.50
2022-10-17T09:36:32.561Z,6.93
2022-10-17T09:39:07.672Z,8.30
2022-10-17T09:41:45.367Z,5.05
2022-10-17T09:44:15.998Z,6.80
2022-10-17T09:47:10.849Z,6.47
2022-10-17T09:49:50.880Z,6.43
2022-10-17T09:52:25.362Z,8.02
2022-10-17T09:55:15.231Z,3.80
2022-10-17T09:58:02.875Z,5.05
2022-10-17T10:00:31.893Z,3.83
2022-10-17T10:03:23.980Z,4.40
2022-10-17T10:06:11.359Z,4.65
2022-10-17T10:08:54.970Z,8.98
2022-10-17T10:11:43.742Z,6.35
2022-10-17T10:16:49.879Z,8.75
2022-10-17T10:19:37.644Z,12.57
2022-10-17T10:22:16.657Z,5.88
2022-10-17T10:27:18.926Z,2.92
2022-10-17T10:29:52.842Z,6.38
2022-10-17T10:32:24.951Z,7.00
2022-10-17T10:35:07.845Z,5.03
2022-10-17T10:37:43.677Z,6.32
2022-10-17T10:40:41.721Z,5.10
2022-10-17T10:43:40.705Z,14.93
2022-10-17T10:46:26.721Z,11.90
2022-10-17T10:48:58.426Z,7.20
2022-10-17T10:51:35.237Z,5.25
2022-10-17T10:54:01.935Z,4.07
2022-10-17T10:56:44.148Z,2.90
2022-10-17T10:59:33.105Z,5.45
2022-10-17T11:02:25.219Z,7.60
2022-10-17T11:05:04.118Z,2.67
2022-10-17T11:07:56.184Z,7.32
2022-10-17T11:10:35.724Z,4.20
2022-10-17T11:13:20.477Z,5.20
2022-10-17T11:16:31.716Z,5.80
2022-10-17T11:19:13.780Z,5.75
2022-10-17T11:21:46.922Z,6.20
2022-10-17T11:24:56.915Z,5.68
2022-10-17T11:27:24.714Z,3.92
2022-10-17T11:29:51.721Z,7.93
2022-10-17T11:32:25.197Z,6.32
2022-10-17T11:35:00.214Z,8.48
2022-10-17T11:37:35.780Z,5.05
2022-10-17T11:40:44.352Z,3.83
2022-10-17T11:43:20.776Z,5.80
2022-10-17T11:45:56.682Z,3.92
2022-10-17T11:48:39.637Z,4.53
2022-10-17T11:54:18.999Z,5.38
2022-10-17T11:57:13.968Z,5.07
2022-10-17T11:59:54.727Z,6.38
2022-10-17T12:02:31.677Z,4.63
2022-10-17T12:05:06.888Z,6.43
2022-10-17T12:08:00.570Z,5.03
2022-10-17T12:10:50.105Z,2.97
2022-10-17T12:13:29.173Z,5.15
2022-10-17T12:15:57.453Z,3.03
2022-10-17T12:18:27.325Z,5.65
2022-10-17T12:21:00.012Z,5.80
2022-10-17T12:23:32.976Z,4.70
2022-10-17T12:26:06.753Z,3.58
2022-10-17T12:28:46.598Z,3.28
2022-10-17T12:31:16.275Z,8.98
2022-10-17T12:33:51.163Z,6.53
2022-10-17T12:36:26.725Z,3.15
2022-10-17T12:39:02.868Z,4.97
2022-10-17T12:41:38.669Z,4.63
2022-10-17T12:44:14.589Z,2.90
2022-10-17T12:47:06.138Z,3.17
2022-10-17T12:49:46.390Z,3.67
2022-10-17T12:52:31.299Z,3.95
2022-10-17T12:55:12.169Z,4.20
2022-10-17T12:57:52.952Z,10.82
2022-10-17T13:00:27.702Z,8.55
2022-10-17T13:03:03.325Z,3.50
2022-10-17T13:05:34.113Z,5.65
2022-10-17T13:08:07.399Z,7.25
2022-10-17T13:10:40.715Z,4.25
2022-10-17T13:13:25.767Z,3.63
2022-10-17T13:15:55.152Z,5.07
2022-10-17T13:18:25.171Z,4.85
2022-10-17T13:21:14.683Z,3.85
2022-10-17T13:23:41.825Z,3.38
2022-10-17T13:26:20.388Z,6.40
2022-10-17T13:29:01.750Z,6.55
2022-10-17T13:31:30.853Z,4.30
2022-10-17T13:34:01.661Z,6.40
2022-10-17T13:36:30.244Z,5.35
2022-10-17T13:39:00.279Z,3.13
2022-10-17T13:41:36.664Z,7.05
2022-10-17T13:44:15.180Z,3.08
2022-10-17T13:46:42.959Z,7.68
2022-10-17T13:49:23.195Z,3.80
2022-10-17T13:51:54.680Z,4.78
2022-10-17T13:54:56.645Z,3.08
2022-10-17T13:57:30.055Z,3.70
2022-10-17T14:00:09.899Z,7.95
2022-10-17T14:02:40.611Z,3.85
2022-10-17T14:05:19.314Z,2.85
2022-10-17T14:10:46.087Z,5.07
2022-10-17T14:13:27.499Z,5.10
2022-10-17T14:15:57.380Z,2.85
2022-10-17T14:18:36.812Z,8.93
2022-10-17T14:24:12.017Z,5.55
2022-10-17T14:27:00.924Z,2.78
2022-10-17T14:29:29.979Z,6.45
2022-10-17T14:32:00.258Z,5.65
2022-10-17T14:34:34.011Z,2.60
2022-10-17T14:37:01.954Z,6.95
2022-10-17T14:39:30.215Z,3.28
2022-10-17T14:41:59.688Z,3.20
2022-10-17T14:44:35.683Z,4.57
2022-10-17T14:47:24.058Z,4.07
2022-10-17T14:50:21.152Z,7.20
2022-10-17T14:53:03.340Z,2.80
2022-10-17T14:55:32.747Z,8.27
2022-10-17T14:57:59.688Z,2.47
2022-10-17T15:00:27.767Z,3.55
2022-10-17T15:02:56.219Z,6.32
2022-10-17T15:05:24.069Z,4.63
2022-10-17T15:07:52.154Z,6.47
2022-10-17T15:10:37.030Z,4.85
2022-10-17T15:13:27.948Z,10.40
2022-10-17T15:15:55.283Z,3.60
2022-10-17T15:18:22.143Z,6.35
2022-10-17T15:21:04.859Z,8.35
2022-10-17T15:23:34.145Z,4.72
2022-10-17T15:26:02.493Z,4.63
2022-10-17T15:28:30.896Z,3.22
2022-10-17T15:30:57.783Z,3.40
2022-10-17T15:33:24.559Z,5.65
2022-10-17T15:35:52.512Z,5.72
2022-10-17T15:38:19.724Z,4.18
2022-10-17T15:40:48.932Z,5.20
2022-10-17T15:43:19.668Z,4.22
2022-10-17T15:45:47.566Z,8.27
2022-10-17T15:48:27.497Z,3.00
2022-10-17T15:50:55.371Z,9.73
2022-10-17T15:53:23.594Z,5.45
2022-10-17T15:55:51.067Z,3.58
2022-10-17T15:58:18.952Z,6.45
2022-10-17T16:00:46.396Z,3.83
2022-10-17T16:03:14.682Z,7.55
2022-10-17T16:05:43.431Z,6.72
2022-10-17T16:08:10.438Z,14.38
2022-10-17T16:10:40.177Z,11.73
2022-10-17T16:13:18.007Z,6.63
2022-10-17T16:15:44.784Z,8.55
2022-10-17T16:18:11.627Z,7.05
2022-10-17T16:20:39.278Z,9.23
2022-10-17T16:23:07.720Z,7.75
2022-10-17T16:25:35.157Z,14.20
2022-10-17T16:28:03.206Z,5.60
2022-10-17T16:30:32.260Z,8.38
2022-10-17T16:32:59.084Z,6.25
2022-10-17T16:35:33.260Z,9.15
2022-10-17T16:38:04.046Z,8.07
2022-10-17T16:40:38.509Z,11.30
2022-10-17T16:43:05.380Z,16.17
2022-10-17T16:45:32.615Z,8.10
2022-10-17T16:47:59.320Z,6.38
2022-10-17T16:50:26.135Z,5.25
2022-10-17T16:52:52.859Z,11.35
2022-10-17T16:55:21.588Z,13.90
2022-10-17T16:57:49.220Z,17.63
2022-10-17T17:00:17.326Z,10.65
2022-10-17T17:02:44.764Z,9.98
2022-10-17T17:05:11.997Z,4.50
2022-10-17T17:07:40.099Z,15.13
2022-10-17T17:10:07.184Z,8.05
2022-10-17T17:12:35.677Z,8.15
2022-10-17T17:15:02.873Z,5.72
2022-10-17T17:17:44.355Z,14.25
2022-10-17T17:20:17.119Z,5.82
2022-10-17T17:22:43.855Z,7.78
2022-10-17T17:25:14.813Z,19.02
2022-10-17T17:27:41.463Z,9.68
2022-10-17T17:30:08.655Z,17.17
2022-10-17T17:32:35.357Z,10.70
2022-10-17T17:35:03.202Z,15.00
2022-10-17T17:37:30.090Z,12.73
2022-10-17T17:39:56.964Z,7.40
2022-10-17T17:42:23.666Z,13.03
2022-10-17T17:44:50.891Z,16.70
2022-10-17T17:47:17.701Z,19.95
2022-10-17T17:49:44.415Z,17.52
2022-10-17T17:52:11.100Z,11.57
2022-10-17T17:54:40.773Z,19.73
2022-10-17T17:57:08.030Z,10.57
2022-10-17T17:59:38.287Z,10.88
2022-10-17T18:02:06.864Z,9.35
2022-10-17T18:04:35.677Z,9.25
2022-10-17T18:07:03.531Z,11.15
2022-10-17T18:09:31.214Z,14.68
2022-10-17T18:11:57.860Z,16.40
2022-10-17T18:14:25.749Z,16.47
2022-10-17T18:16:52.529Z,11.88
2022-10-17T18:19:19.415Z,5.93
2022-10-17T18:21:46.322Z,15.70
2022-10-17T18:24:12.992Z,10.10
2022-10-17T18:26:40.810Z,9.37
2022-10-17T18:29:07.563Z,7.95
2022-10-17T18:31:37.281Z,13.87
2022-10-17T18:34:05.415Z,21.45
2022-10-17T18:36:33.970Z,7.90
2022-10-17T18:39:01.655Z,8.52
2022-10-17T18:41:28.841Z,6.07
2022-10-17T18:43:56.713Z,9.95
2022-10-17T18:46:29.429Z,10.77
2022-10-17T18:48:56.781Z,8.65
2022-10-17T18:51:27.897Z,12.07
2022-10-17T18:53:58.861Z,12.93
2022-10-17T18:56:26.429Z,13.80
2022-10-17T19:01:24.662Z,18.85
2022-10-17T19:03:53.111Z,14.38
2022-10-17T19:06:23.221Z,15.45
2022-10-17T19:08:52.084Z,11.23
2022-10-17T19:11:25.251Z,13.55
2022-10-17T19:13:52.882Z,14.13
2022-10-17T19:18:51.963Z,17.40
2022-10-17T19:21:21.866Z,12.02
2022-10-17T19:23:54.566Z,17.33
2022-10-17T19:26:23.239Z,16.30
2022-10-17T19:28:53.387Z,12.57
2022-10-17T19:31:26.846Z,15.55
2022-10-17T19:33:55.292Z,16.20
2022-10-17T19:36:27.602Z,14.68
2022-10-17T19:38:59.610Z,19.45
2022-10-17T19:41:26.918Z,20.90
2022-10-17T19:43:53.915Z,16.33
2022-10-17T19:46:25.957Z,25.85
2022-10-17T19:48:53.010Z,17.08
2022-10-17T19:51:24.533Z,21.23
2022-10-17T19:53:52.760Z,23.73
2022-10-17T19:56:21.078Z,15.38
2022-10-17T19:58:49.940Z,19.00
2022-10-17T20:01:27.282Z,25.05
2022-10-17T20:03:55.289Z,19.53
2022-10-17T20:06:22.779Z,20.63
2022-10-17T20:08:50.331Z,22.42
2022-10-17T20:13:51.322Z,19.70
2022-10-17T20:16:23.997Z,21.10
2022-10-17T20:18:52.187Z,16.17
2022-10-17T20:21:28.311Z,15.75
2022-10-17T20:23:55.211Z,22.80
2022-10-17T20:26:37.456Z,14.23
2022-10-17T20:29:16.670Z,21.83
2022-10-17T20:31:45.007Z,17.85
2022-10-17T20:34:14.815Z,25.80
2022-10-17T20:36:42.116Z,22.73
2022-10-17T20:39:11.131Z,16.63
2022-10-17T20:41:37.947Z,19.75
2022-10-17T20:44:06.971Z,16.73
2022-10-17T20:46:38.491Z,16.27
2022-10-17T20:49:17.973Z,35.78
2022-10-17T20:51:45.361Z,21.00
2022-10-17T20:54:12.721Z,30.92
2022-10-17T20:56:39.736Z,22.70
2022-10-17T20:59:12.264Z,20.88
2022-10-17T21:01:38.988Z,16.25
2022-10-17T21:04:33.250Z,25.63
2022-10-17T21:06:53.918Z,19.33
2022-10-17T21:09:21.747Z,18.17
2022-10-17T21:11:51.328Z,17.25
2022-10-17T21:14:18.468Z,20.42
2022-10-17T21:16:45.151Z,24.70
2022-10-17T21:19:12.642Z,25.60
2022-10-17T21:21:41.942Z,21.48
2022-10-17T21:24:14.371Z,20.63
2022-10-17T21:26:43.368Z,21.75
2022-10-17T21:29:11.755Z,16.88
2022-10-17T21:31:41.005Z,23.10
2022-10-17T21:34:14.575Z,21.33
2022-10-17T21:36:41.755Z,17.27
2022-10-17T21:39:09.613Z,18.45
2022-10-17T21:41:37.871Z,22.77
2022-10-17T21:44:07.072Z,12.85
2022-10-17T21:46:34.361Z,17.73
2022-10-17T21:49:01.416Z,19.42
2022-10-17T21:51:28.638Z,14.07
2022-10-17T21:53:56.965Z,16.95
2022-10-17T21:56:32.464Z,14.68
2022-10-17T21:58:59.907Z,14.38
2022-10-17T22:01:32.656Z,14.75
2022-10-17T22:04:03.219Z,16.63
2022-10-17T22:06:40.998Z,17.50
2022-10-17T22:09:17.375Z,13.98
2022-10-17T22:11:49.821Z,16.02
2022-10-17T22:14:18.864Z,16.80
2022-10-17T22:16:46.976Z,18.60
2022-10-17T22:19:17.157Z,16.25
2022-10-17T22:21:44.070Z,14.85
2022-10-17T22:24:13.101Z,19.50
2022-10-17T22:26:40.192Z,17.98
2022-10-17T22:29:08.612Z,17.35
2022-10-17T22:31:35.940Z,20.45
2022-10-17T22:34:04.394Z,32.60
2022-10-17T22:36:32.412Z,18.35
2022-10-17T22:38:59.162Z,17.30
2022-10-17T22:41:25.914Z,27.47
2022-10-17T22:43:52.655Z,19.33
2022-10-17T22:46:19.352Z,16.60
2022-10-17T22:48:46.072Z,21.60
2022-10-17T22:51:12.987Z,18.83
2022-10-17T22:53:39.818Z,20.88
2022-10-17T22:56:10.913Z,22.17
2022-10-17T22:58:38.330Z,17.55
2022-10-17T23:01:06.687Z,23.30
2022-10-17T23:03:34.440Z,16.98
2022-10-17T23:08:28.769Z,19.85
2022-10-17T23:10:55.608Z,15.57
2022-10-17T23:13:22.435Z,30.53
2022-10-17T23:15:56.739Z,18.30
2022-10-17T23:18:25.286Z,16.65
2022-10-17T23:20:53.616Z,18.67
2022-10-17T23:23:20.339Z,15.98
2022-10-17T23:25:47.177Z,16.07
2022-10-17T23:28:14.143Z,17.27
2022-10-17T23:30:42.393Z,15.23
2022-10-17T23:33:11.716Z,13.48
2022-10-17T23:35:39.721Z,17.95
2022-10-17T23:38:07.703Z,9.13
2022-10-17T23:40:35.320Z,12.65
2022-10-17T23:45:36.090Z,11.32
2022-10-17T23:48:04.897Z,13.70
2022-10-17T23:50:31.706Z,8.48
2022-10-17T23:52:58.363Z,7.27
2022-10-17T23:55:25.082Z,10.23
2022-10-17T23:57:51.895Z,7.65
